Time;durP1;ratioP1;P1;durP2;ratioP2;P2;SDS_P1;SDS_P2;PMS_P1;PMS_P2;Temp;Humidity;BMP_temperature;BMP_pressure;BME280_temperature;BME280_humidity;BME280_pressure;Samples;Min_cycle;Max_cycle;Signal;HPM_P1;HPM_P2
2022/05/11 00:01:32;;;;;;;;;;;;;;;13.93;100.00;98214.38;5074305;28;19924;-82
2022/05/11 00:03:59;;;;;;;;;;;;;;;14.01;100.00;98210.03;5073259;28;20073;-82
2022/05/11 00:06:27;;;;;;;;;;;;;;;13.98;100.00;98215.81;5073647;28;20339;-82
2022/05/11 00:08:55;;;;;;;;;;;;;;;14.00;100.00;98208.47;5074335;28;19974;-82
2022/05/11 00:11:23;;;;;;;;;;;;;;;13.94;100.00;98201.91;5074530;28;20312;-82
2022/05/11 00:13:50;;;;;;;;;;;;;;;14.00;100.00;98202.06;5074174;28;19925;-82
2022/05/11 00:16:17;;;;;;;;;;;;;;;13.93;100.00;98191.91;5081634;28;19925;-82
2022/05/11 00:18:45;;;;;;;;;;;;;;;13.86;100.00;98189.41;5080478;28;19925;-82
2022/05/11 00:21:12;;;;;;;;;;;;;;;13.96;100.00;98187.41;5089653;28;19924;-81
2022/05/11 00:23:39;;;;;;;;;;;;;;;13.92;100.00;98183.94;5074065;28;19928;-82
2022/05/11 00:26:06;;;;;;;;;;;;;;;13.89;100.00;98184.88;5072831;28;19934;-82
2022/05/11 00:28:33;;;;;;;;;;;;;;;14.25;100.00;98184.94;5073870;28;20140;-82
2022/05/11 00:31:01;;;;;;;;;;;;;;;13.99;100.00;98173.22;5074186;28;19928;-82
2022/05/11 00:33:28;;;;;;;;;;;;;;;13.97;100.00;98174.91;5072315;28;19924;-82
2022/05/11 00:35:55;;;;;;;;;;;;;;;14.06;100.00;98166.50;5073100;28;19925;-82
2022/05/11 00:38:23;;;;;;;;;;;;;;;14.21;100.00;98156.19;5072652;28;19924;-82
2022/05/11 00:40:52;;;;;;;;;;;;;;;14.13;100.00;98152.91;5071927;28;19925;-82
2022/05/11 00:43:46;;;;;;;;;;;;;;;14.09;100.00;98159.94;5055833;28;19974;-82
2022/05/11 00:46:19;;;;;;;;;;;;;;;13.96;100.00;98159.31;5035591;28;19936;-82
2022/05/11 00:51:42;;;;;;;;;;;;;;;14.23;100.00;98153.69;5072594;28;19974;-82
2022/05/11 00:54:10;;;;;;;;;;;;;;;14.09;100.00;98138.25;5072569;28;19924;-82
2022/05/11 00:56:39;;;;;;;;;;;;;;;13.75;100.00;98129.38;5056112;28;20294;-82
2022/05/11 00:59:12;;;;;;;;;;;;;;;13.85;100.00;98136.53;5072154;28;20027;-82
2022/05/11 01:01:40;;;;;;;;;;;;;;;13.97;100.00;98121.56;5072010;28;19974;-82
2022/05/11 01:04:09;;;;;;;;;;;;;;;14.06;100.00;98127.19;5071765;28;20379;-82
2022/05/11 01:06:37;;;;;;;;;;;;;;;14.26;100.00;98119.06;5072384;28;19985;-81
2022/05/11 01:09:05;;;;;;;;;;;;;;;13.97;100.00;98121.56;5055745;28;20303;-81
2022/05/11 01:11:36;;;;;;;;;;;;;;;13.90;100.00;98125.44;5071964;28;20197;-82
2022/05/11 01:14:04;;;;;;;;;;;;;;;13.88;100.00;98111.13;5072908;28;19925;-81
2022/05/11 01:16:31;;;;;;;;;;;;;;;14.14;100.00;98122.81;5072333;28;19935;-82
2022/05/11 01:18:58;;;;;;;;;;;;;;;13.96;100.00;98105.97;5073249;28;19924;-82
2022/05/11 01:21:32;;;;;;;;;;;;;;;13.82;100.00;98117.81;5073246;28;20385;-82
2022/05/11 01:24:02;;;;;;;;;;;;;;;13.78;100.00;98100.38;5055255;28;19924;-82
2022/05/11 01:26:33;;;;;;;;;;;;;;;13.94;100.00;98097.22;5085059;28;20011;-82
2022/05/11 01:29:01;;;;;;;;;;;;;;;13.85;100.00;98100.81;5081110;28;19947;-82
2022/05/11 01:31:28;;;;;;;;;;;;;;;13.77;100.00;98084.75;5055424;28;19924;-82
2022/05/11 01:33:55;;;;;;;;;;;;;;;13.96;100.00;98091.94;5073082;28;19978;-82
2022/05/11 01:36:25;;;;;;;;;;;;;;;13.85;100.00;98075.56;5055025;28;19924;-82
2022/05/11 01:38:55;;;;;;;;;;;;;;;13.70;100.00;98071.03;5055190;28;19924;-82
2022/05/11 01:41:39;;;;;;;;;;;;;;;13.66;100.00;98071.19;5051632;28;19952;-82
2022/05/11 01:44:08;;;;;;;;;;;;;;;13.81;100.00;98076.97;5053799;28;19935;-82
2022/05/11 01:46:36;;;;;;;;;;;;;;;13.79;100.00;98085.06;5051689;28;19933;-82
2022/05/11 01:49:03;;;;;;;;;;;;;;;13.86;100.00;98090.34;5051904;28;19924;-82
2022/05/11 01:51:30;;;;;;;;;;;;;;;13.80;100.00;98083.81;5053532;28;19932;-82
2022/05/11 01:53:58;;;;;;;;;;;;;;;13.61;100.00;98082.25;5072455;28;20388;-82
2022/05/11 01:56:25;;;;;;;;;;;;;;;13.68;100.00;98091.16;5071373;28;19971;-82
2022/05/11 01:58:54;;;;;;;;;;;;;;;13.55;100.00;98095.34;5071858;28;19925;-82
2022/05/11 02:01:23;;;;;;;;;;;;;;;13.83;100.00;98100.50;5071384;28;19925;-82
2022/05/11 02:03:50;;;;;;;;;;;;;;;14.00;100.00;98093.31;5054975;28;19925;-82
2022/05/11 02:09:03;;;;;;;;;;;;;;;13.67;100.00;98095.22;5071649;28;19925;-82
2022/05/11 02:11:31;;;;;;;;;;;;;;;13.71;100.00;98084.59;5070786;28;20027;-82
2022/05/11 02:13:58;;;;;;;;;;;;;;;13.78;100.00;98084.28;5072406;28;19931;-82
2022/05/11 02:16:25;;;;;;;;;;;;;;;13.72;100.00;98074.16;5072626;28;19928;-82
2022/05/11 02:18:54;;;;;;;;;;;;;;;13.81;100.00;98066.50;5071496;28;19947;-82
2022/05/11 02:21:22;;;;;;;;;;;;;;;13.74;100.00;98064.00;5072620;28;19994;-82
2022/05/11 02:23:51;;;;;;;;;;;;;;;13.57;100.00;98067.63;5078193;28;19924;-82
2022/05/11 02:26:21;;;;;;;;;;;;;;;13.46;100.00;98073.69;5054478;28;20029;-82
2022/05/11 02:28:49;;;;;;;;;;;;;;;13.63;100.00;98052.47;5054492;28;19986;-83
2022/05/11 02:31:20;;;;;;;;;;;;;;;13.85;100.00;98052.31;5071261;28;19924;-83
2022/05/11 02:33:47;;;;;;;;;;;;;;;13.99;100.00;98054.47;5038157;28;19931;-82
2022/05/11 02:36:14;;;;;;;;;;;;;;;13.75;100.00;98057.16;5071348;28;20015;-82
2022/05/11 02:38:42;;;;;;;;;;;;;;;13.83;100.00;98071.63;5072650;28;19924;-82
2022/05/11 02:41:09;;;;;;;;;;;;;;;13.89;100.00;98066.97;5054511;28;19986;-82
2022/05/11 02:43:37;;;;;;;;;;;;;;;14.02;100.00;98064.78;5071881;28;20023;-82
2022/05/11 02:46:04;;;;;;;;;;;;;;;13.82;100.00;98068.06;5089651;28;19931;-83
2022/05/11 02:48:33;;;;;;;;;;;;;;;13.91;100.00;98061.66;5052353;28;19931;-82
2022/05/11 02:51:00;;;;;;;;;;;;;;;14.09;100.00;98070.84;5084441;28;19967;-83
2022/05/11 02:53:28;;;;;;;;;;;;;;;14.27;100.00;98053.19;5084552;28;19925;-82
2022/05/11 02:55:56;;;;;;;;;;;;;;;14.26;100.00;98046.03;5084437;28;19929;-82
2022/05/11 02:58:29;;;;;;;;;;;;;;;13.91;100.00;98054.03;5051189;28;19931;-82
2022/05/11 03:00:58;;;;;;;;;;;;;;;13.70;100.00;98048.56;5064968;28;20023;-82
2022/05/11 03:03:25;;;;;;;;;;;;;;;13.91;100.00;98047.63;5072836;28;19950;-82
2022/05/11 03:05:52;;;;;;;;;;;;;;;14.21;100.00;98041.00;5058243;28;20383;-82
2022/05/11 03:08:20;;;;;;;;;;;;;;;14.15;100.00;98045.72;5054350;28;19925;-83
2022/05/11 03:10:48;;;;;;;;;;;;;;;14.13;100.00;98048.22;5054613;28;20296;-82
2022/05/11 03:13:16;;;;;;;;;;;;;;;13.90;100.00;98044.03;5059871;28;20287;-82
2022/05/11 03:15:43;;;;;;;;;;;;;;;14.21;100.00;98039.00;5071408;28;19948;-82
2022/05/11 03:18:10;;;;;;;;;;;;;;;13.95;100.00;98045.44;5087634;28;19925;-82
2022/05/11 03:20:37;;;;;;;;;;;;;;;13.92;100.00;98051.97;5070957;28;19948;-83
2022/05/11 03:23:04;;;;;;;;;;;;;;;14.10;100.00;98043.56;5064441;28;19974;-83
2022/05/11 03:25:32;;;;;;;;;;;;;;;14.08;100.00;98046.03;5057923;28;20299;-83
2022/05/11 03:27:59;;;;;;;;;;;;;;;14.04;100.00;98037.00;5074118;28;19924;-82
2022/05/11 03:30:26;;;;;;;;;;;;;;;13.87;100.00;98041.41;5074333;28;19967;-82
2022/05/11 03:35:38;;;;;;;;;;;;;;;14.00;100.00;98039.19;5075311;28;20380;-83
2022/05/11 03:38:05;;;;;;;;;;;;;;;13.97;100.00;98040.91;5073565;28;20303;-82
2022/05/11 03:40:34;;;;;;;;;;;;;;;14.01;100.00;98044.34;5073829;28;20379;-82
2022/05/11 03:43:03;;;;;;;;;;;;;;;13.81;100.00;98021.56;5073353;28;20415;-82
2022/05/11 03:45:30;;;;;;;;;;;;;;;13.79;100.00;98032.53;5095751;28;19932;-82
2022/05/11 03:47:58;;;;;;;;;;;;;;;13.54;100.00;98034.88;5070090;28;19929;-82
2022/05/11 03:50:25;;;;;;;;;;;;;;;13.87;100.00;98024.56;5070383;28;19929;-83
2022/05/11 03:52:53;;;;;;;;;;;;;;;13.72;100.00;98018.03;5062510;28;20330;-82
2022/05/11 03:55:20;;;;;;;;;;;;;;;13.43;100.00;98045.78;5074587;28;19924;-82
2022/05/11 03:57:47;;;;;;;;;;;;;;;13.21;100.00;98019.91;5074174;28;19928;-82
2022/05/11 04:00:17;;;;;;;;;;;;;;;13.50;100.00;98023.00;5074926;28;20433;-82
2022/05/11 04:02:44;;;;;;;;;;;;;;;13.65;100.00;98023.94;5037010;28;20384;-83
2022/05/11 04:05:13;;;;;;;;;;;;;;;13.50;100.00;98025.81;5059190;28;19966;-83
2022/05/11 04:07:41;;;;;;;;;;;;;;;13.48;100.00;98026.28;5086195;28;19932;-83
2022/05/11 04:10:10;;;;;;;;;;;;;;;13.56;100.00;98012.72;5061900;28;20025;-83
2022/05/11 04:12:37;;;;;;;;;;;;;;;13.56;100.00;98012.72;5073079;28;19978;-83
2022/05/11 04:15:04;;;;;;;;;;;;;;;13.68;100.00;98018.16;5072883;28;19924;-83
2022/05/11 04:17:31;;;;;;;;;;;;;;;13.60;100.00;98007.75;5074513;28;19924;-83
2022/05/11 04:19:59;;;;;;;;;;;;;;;13.77;100.00;98003.34;5073235;28;19924;-83
2022/05/11 04:22:26;;;;;;;;;;;;;;;13.39;100.00;98001.03;5074085;28;19932;-82
2022/05/11 04:24:53;;;;;;;;;;;;;;;13.47;100.00;98005.09;5106572;28;19925;-83
2022/05/11 04:27:20;;;;;;;;;;;;;;;13.25;100.00;98006.50;5085231;28;20076;-83
2022/05/11 04:29:47;;;;;;;;;;;;;;;13.37;100.00;98003.53;5105060;28;19932;-83
2022/05/11 04:32:17;;;;;;;;;;;;;;;13.02;100.00;98004.28;5056596;28;20018;-82
2022/05/11 04:34:44;;;;;;;;;;;;;;;12.92;100.00;98011.84;5073099;28;19931;-82
2022/05/11 04:37:12;;;;;;;;;;;;;;;13.03;100.00;97994.59;5096750;28;19925;-82
2022/05/11 04:39:39;;;;;;;;;;;;;;;13.21;100.00;98009.44;5053220;28;19924;-82
2022/05/11 04:42:07;;;;;;;;;;;;;;;13.23;100.00;98006.16;5038826;28;20380;-82
2022/05/11 04:44:34;;;;;;;;;;;;;;;12.98;100.00;98001.56;5071760;28;19924;-82
2022/05/11 04:47:11;;;;;;;;;;;;;;;13.13;100.00;98004.59;5073697;28;19928;-82
2022/05/11 04:49:39;;;;;;;;;;;;;;;13.29;100.00;98007.09;5087511;28;19931;-82
2022/05/11 04:52:13;;;;;;;;;;;;;;;12.79;100.00;98014.00;5076759;28;19928;-82
2022/05/11 04:54:44;;;;;;;;;;;;;;;12.96;100.00;98008.91;5106581;28;19928;-82
2022/05/11 04:57:12;;;;;;;;;;;;;;;13.18;100.00;98006.78;5072166;28;19928;-83
2022/05/11 04:59:40;;;;;;;;;;;;;;;13.42;100.00;98008.50;5072324;28;20031;-82
2022/05/11 05:02:12;;;;;;;;;;;;;;;12.99;100.00;98005.97;5105913;28;20386;-82
2022/05/11 05:04:39;;;;;;;;;;;;;;;13.28;100.00;98002.75;5072879;28;19925;-82
2022/05/11 05:07:06;;;;;;;;;;;;;;;13.06;100.00;98008.47;5106030;28;19950;-83
2022/05/11 05:09:33;;;;;;;;;;;;;;;13.22;100.00;98011.00;5072259;28;19928;-83
2022/05/11 05:12:01;;;;;;;;;;;;;;;13.07;100.00;98000.88;5072954;28;19931;-83
2022/05/11 05:14:28;;;;;;;;;;;;;;;13.04;100.00;98005.34;5072901;28;19960;-83
2022/05/11 05:17:02;;;;;;;;;;;;;;;13.38;100.00;98009.91;5035579;28;20369;-83
2022/05/11 05:19:30;;;;;;;;;;;;;;;13.17;100.00;98006.00;5068404;28;20380;-83
2022/05/11 05:21:58;;;;;;;;;;;;;;;12.97;100.00;98008.44;5070217;28;20028;-83
2022/05/11 05:24:25;;;;;;;;;;;;;;;12.89;100.00;97995.19;5068943;28;19932;-83
2022/05/11 05:26:52;;;;;;;;;;;;;;;13.23;100.00;97989.34;5052146;28;19932;-83
2022/05/11 05:32:06;;;;;;;;;;;;;;;13.26;100.00;97992.00;5073235;28;20362;-83
2022/05/11 05:34:33;;;;;;;;;;;;;;;13.14;100.00;98000.53;5055248;28;20002;-83
2022/05/11 05:37:00;;;;;;;;;;;;;;;13.28;100.00;98005.56;5071580;28;20018;-82
2022/05/11 05:39:27;;;;;;;;;;;;;;;13.34;100.00;97995.28;5072014;28;19929;-83
2022/05/11 05:41:54;;;;;;;;;;;;;;;13.11;100.00;97991.06;5071889;28;19925;-83
2022/05/11 05:44:21;;;;;;;;;;;;;;;13.22;100.00;97993.41;5071146;28;19973;-83
2022/05/11 05:46:48;;;;;;;;;;;;;;;12.95;100.00;97993.34;5071577;28;19928;-83
2022/05/11 05:49:15;;;;;;;;;;;;;;;13.04;100.00;97996.94;5034845;28;19932;-83
2022/05/11 05:51:43;;;;;;;;;;;;;;;13.17;100.00;97983.56;5060642;28;20295;-83
2022/05/11 05:54:11;;;;;;;;;;;;;;;13.31;100.00;97987.78;5035096;28;20288;-83
2022/05/11 05:56:40;;;;;;;;;;;;;;;13.55;100.00;97994.31;5052656;28;19956;-83
2022/05/11 05:59:10;;;;;;;;;;;;;;;13.58;100.00;97996.19;5071260;28;19924;-83
2022/05/11 06:02:01;;;;;;;;;;;;;;;13.46;100.00;97994.34;5072874;28;19925;-83
2022/05/11 06:04:42;;;;;;;;;;;;;;;13.22;100.00;97991.38;5056155;28;19946;-83
2022/05/11 06:07:09;;;;;;;;;;;;;;;13.36;100.00;97987.94;5071762;28;19925;-84
2022/05/11 06:09:36;;;;;;;;;;;;;;;13.45;100.00;97989.97;5071504;28;19974;-83
2022/05/11 06:12:03;;;;;;;;;;;;;;;13.16;100.00;97981.25;5087947;28;19932;-84
2022/05/11 06:14:30;;;;;;;;;;;;;;;13.06;100.00;97985.25;5035002;28;19974;-83
2022/05/11 06:17:01;;;;;;;;;;;;;;;13.16;100.00;97984.03;5071069;28;20366;-84
2022/05/11 06:19:31;;;;;;;;;;;;;;;13.30;100.00;97989.03;5071700;28;19924;-83
2022/05/11 06:21:59;;;;;;;;;;;;;;;13.34;100.00;97984.03;5052947;28;20287;-83
2022/05/11 06:24:30;;;;;;;;;;;;;;;13.47;100.00;97993.06;5068039;28;19929;-84
2022/05/11 06:26:57;;;;;;;;;;;;;;;13.25;100.00;97979.22;5068967;28;20079;-83
2022/05/11 06:29:29;;;;;;;;;;;;;;;13.24;100.00;97999.31;5051221;28;19925;-83
2022/05/11 06:31:56;;;;;;;;;;;;;;;13.21;100.00;97991.84;5080636;28;19931;-84
2022/05/11 06:34:24;;;;;;;;;;;;;;;13.24;100.00;97994.47;5038246;28;20015;-83
2022/05/11 06:36:51;;;;;;;;;;;;;;;13.44;100.00;97994.00;5054788;28;20336;-84
2022/05/11 06:39:19;;;;;;;;;;;;;;;13.34;100.00;97987.66;5080115;28;19925;-83
2022/05/11 06:41:46;;;;;;;;;;;;;;;13.40;100.00;97993.41;5076131;28;19931;-84
2022/05/11 06:44:13;;;;;;;;;;;;;;;13.25;100.00;97995.25;5074845;28;20291;-83
2022/05/11 06:46:40;;;;;;;;;;;;;;;13.49;100.00;97988.56;5058218;28;20410;-85
2022/05/11 06:49:08;;;;;;;;;;;;;;;13.43;100.00;97986.84;5074529;28;19935;-80
2022/05/11 06:51:35;;;;;;;;;;;;;;;13.54;100.00;97992.78;5074949;28;19924;-81
2022/05/11 07:01:51;;;;;;;;;;;;;;;13.43;100.00;97996.06;5110646;27;19912;-82
2022/05/11 07:04:22;;;;;;;;;;;;;;;13.32;100.00;97992.94;5092465;28;19923;-85
2022/05/11 07:06:52;;;;;;;;;;;;;;;13.20;100.00;98004.28;5092564;28;20355;-84
2022/05/11 07:09:21;;;;;;;;;;;;;;;13.08;100.00;98010.81;5076119;28;19924;-84
2022/05/11 07:14:33;;;;;;;;;;;;;;;13.09;100.00;98015.19;5106929;28;19925;-81
2022/05/11 07:17:02;;;;;;;;;;;;;;;13.11;100.00;98016.28;5091825;28;19924;-81
2022/05/11 07:19:29;;;;;;;;;;;;;;;12.99;100.00;98010.78;5092124;28;19924;-81
2022/05/11 07:21:57;;;;;;;;;;;;;;;13.06;100.00;98010.50;5110476;28;19931;-80
2022/05/11 07:24:24;;;;;;;;;;;;;;;13.47;100.00;98015.53;5110108;28;19963;-82
2022/05/11 07:26:51;;;;;;;;;;;;;;;13.47;100.00;98007.09;5110294;28;19976;-85
2022/05/11 07:29:18;;;;;;;;;;;;;;;13.36;100.00;98007.56;5075397;28;19954;-81
2022/05/11 07:31:46;;;;;;;;;;;;;;;13.38;100.00;98007.91;5092134;28;20374;-81
2022/05/11 07:34:13;;;;;;;;;;;;;;;13.13;100.00;98010.97;5071517;28;19947;-82
2022/05/11 07:36:41;;;;;;;;;;;;;;;13.32;100.00;98012.56;5086317;28;19924;-83
2022/05/11 07:39:08;;;;;;;;;;;;;;;13.53;100.00;98010.84;5091987;28;20029;-83
2022/05/11 07:41:35;;;;;;;;;;;;;;;13.42;100.00;98004.94;5075257;28;19924;-82
2022/05/11 07:44:03;;;;;;;;;;;;;;;13.47;100.00;98012.72;5110068;28;20409;-83
2022/05/11 07:46:34;;;;;;;;;;;;;;;13.46;100.00;98011.16;5109948;28;20368;-83
2022/05/11 07:49:03;;;;;;;;;;;;;;;13.69;100.00;98011.28;5104801;28;20391;-81
2022/05/11 07:51:31;;;;;;;;;;;;;;;13.37;100.00;98022.38;5070611;28;20395;-80
2022/05/11 07:53:58;;;;;;;;;;;;;;;13.46;100.00;98016.78;5103336;28;19977;-82
2022/05/11 08:01:57;;;;;;;;;;;;;;;13.66;100.00;98015.03;5109452;28;19931;-81
2022/05/11 08:04:25;;;;;;;;;;;;;;;13.54;100.00;98013.19;5091231;28;19924;-81
2022/05/11 08:06:52;;;;;;;;;;;;;;;13.48;100.00;98015.06;5090018;28;20438;-82
2022/05/11 08:09:19;;;;;;;;;;;;;;;13.77;100.00;98014.56;5109155;28;19931;-82
2022/05/11 08:11:47;;;;;;;;;;;;;;;13.79;100.00;98023.31;5085409;28;19924;-81
2022/05/11 08:14:14;;;;;;;;;;;;;;;13.69;100.00;98013.34;5065520;28;19963;-82
2022/05/11 08:16:41;;;;;;;;;;;;;;;13.75;100.00;98017.09;5074350;28;20383;-82
2022/05/11 08:19:09;;;;;;;;;;;;;;;13.99;100.00;98026.41;5074376;28;19925;-81
2022/05/11 08:21:38;;;;;;;;;;;;;;;14.03;100.00;98029.81;5078613;28;19924;-82
2022/05/11 08:24:05;;;;;;;;;;;;;;;14.07;100.00;98033.25;5060464;28;20022;-81
2022/05/11 08:26:33;;;;;;;;;;;;;;;13.50;100.00;98037.03;5077664;28;19934;-82
2022/05/11 08:29:00;;;;;;;;;;;;;;;13.42;100.00;98033.75;5060603;28;19924;-82
2022/05/11 08:34:30;;;;;;;;;;;;;;;13.55;100.00;98030.81;5016519;28;20028;-81
2022/05/11 08:36:57;;;;;;;;;;;;;;;13.63;100.00;98038.44;5016151;28;20436;-82
2022/05/11 08:39:25;;;;;;;;;;;;;;;13.58;100.00;98038.28;5016478;28;20316;-82
2022/05/11 08:41:52;;;;;;;;;;;;;;;13.81;100.00;98035.63;5016135;28;20296;-82
2022/05/11 08:44:21;;;;;;;;;;;;;;;13.82;100.00;98028.78;5032753;28;20328;-81
2022/05/11 08:47:07;;;;;;;;;;;;;;;13.71;100.00;98016.44;5015637;28;19925;-82
2022/05/11 08:49:43;;;;;;;;;;;;;;;13.92;100.00;98021.09;4999080;28;19978;-81
2022/05/11 08:52:17;;;;;;;;;;;;;;;14.08;100.00;98012.34;5016237;28;20343;-82
2022/05/11 08:54:48;;;;;;;;;;;;;;;13.75;100.00;98009.41;5015933;28;20285;-82
2022/05/11 08:57:17;;;;;;;;;;;;;;;14.15;100.00;98006.38;4999588;28;19931;-81
2022/05/11 08:59:45;;;;;;;;;;;;;;;14.26;100.00;98012.31;5004387;28;19956;-82
2022/05/11 09:02:20;;;;;;;;;;;;;;;14.00;100.00;97999.88;5032539;28;20432;-82
2022/05/11 09:04:48;;;;;;;;;;;;;;;13.95;100.00;97992.09;5032390;28;20436;-81
2022/05/11 09:07:16;;;;;;;;;;;;;;;13.94;100.00;97996.13;5039652;28;19932;-81
2022/05/11 09:09:43;;;;;;;;;;;;;;;14.04;100.00;97989.28;5039568;28;19936;-82
2022/05/11 09:12:11;;;;;;;;;;;;;;;14.10;100.00;98004.22;5059646;28;19924;-82
2022/05/11 09:14:38;;;;;;;;;;;;;;;14.16;100.00;97997.47;5076436;28;19931;-82
2022/05/11 09:17:19;;;;;;;;;;;;;;;14.04;100.00;97994.88;5108661;28;20276;-82
2022/05/11 09:19:46;;;;;;;;;;;;;;;13.96;100.00;97999.25;5059844;28;19928;-82
2022/05/11 09:22:17;;;;;;;;;;;;;;;14.21;100.00;98018.53;5075759;28;20021;-82
2022/05/11 09:24:46;;;;;;;;;;;;;;;14.11;100.00;98008.59;5075199;28;19971;-81
2022/05/11 09:27:27;;;;;;;;;;;;;;;14.23;100.00;98013.22;5075569;28;20345;-82
2022/05/11 09:29:56;;;;;;;;;;;;;;;14.12;100.00;98012.94;5059481;28;19931;-81
2022/05/11 09:32:29;;;;;;;;;;;;;;;14.03;100.00;98010.16;5094027;28;20429;-82
2022/05/11 09:35:15;;;;;;;;;;;;;;;13.70;100.00;98014.91;5075898;28;20306;-82
2022/05/11 09:37:44;;;;;;;;;;;;;;;13.48;100.00;98011.50;5076338;28;19924;-83
2022/05/11 09:40:17;;;;;;;;;;;;;;;13.57;100.00;98006.63;5091205;28;19924;-82
2022/05/11 09:42:52;;;;;;;;;;;;;;;13.86;100.00;98012.53;5109456;28;19986;-82
2022/05/11 09:45:38;;;;;;;;;;;;;;;13.81;100.00;97996.31;5093275;28;19963;-82
2022/05/11 09:48:15;;;;;;;;;;;;;;;14.08;100.00;98003.91;5092891;28;19938;-82
2022/05/11 09:50:43;;;;;;;;;;;;;;;14.13;100.00;97980.81;5075744;28;20368;-82
2022/05/11 09:53:20;;;;;;;;;;;;;;;14.03;100.00;97976.47;5059368;28;20009;-82
2022/05/11 09:55:48;;;;;;;;;;;;;;;13.89;100.00;97977.09;5058317;28;19936;-82
2022/05/11 09:58:25;;;;;;;;;;;;;;;13.89;100.00;97972.28;5093660;28;19924;-82
2022/05/11 10:00:53;;;;;;;;;;;;;;;14.14;100.00;97971.91;5093224;28;19967;-82
2022/05/11 10:03:27;;;;;;;;;;;;;;;14.49;100.00;97975.06;5059113;28;19924;-82
2022/05/11 10:05:54;;;;;;;;;;;;;;;14.36;100.00;97977.31;5074445;28;19932;-82
2022/05/11 10:08:28;;;;;;;;;;;;;;;14.72;100.00;97965.13;5075708;28;19951;-81
2022/05/11 10:11:08;;;;;;;;;;;;;;;14.51;100.00;97960.56;5055359;28;19928;-82
2022/05/11 10:13:40;;;;;;;;;;;;;;;14.67;100.00;97969.34;5059034;28;19924;-82
2022/05/11 10:22:09;;;;;;;;;;;;;;;15.42;100.00;97962.28;5093534;28;20428;-82
2022/05/11 10:24:56;;;;;;;;;;;;;;;14.82;100.00;97963.78;5075331;28;19924;-82
2022/05/11 10:27:42;;;;;;;;;;;;;;;14.75;100.00;97958.53;5093553;28;19982;-82
2022/05/11 10:30:23;;;;;;;;;;;;;;;14.37;100.00;97962.03;5058810;28;19930;-82
2022/05/11 10:32:59;;;;;;;;;;;;;;;14.16;100.00;97969.38;5058450;28;20432;-82
2022/05/11 10:35:45;;;;;;;;;;;;;;;14.41;100.00;97962.63;5075406;28;19928;-83
2022/05/11 10:38:15;;;;;;;;;;;;;;;14.04;100.00;97953.50;5058720;28;20006;-83
2022/05/11 10:40:52;;;;;;;;;;;;;;;14.37;100.00;97957.16;5074508;28;20066;-82
2022/05/11 10:43:36;;;;;;;;;;;;;;;14.33;100.00;97962.19;5074997;28;20064;-83
2022/05/11 10:46:27;;;;;;;;;;;;;;;14.71;100.00;97966.38;5075168;28;19924;-82
2022/05/11 10:49:04;;;;;;;;;;;;;;;14.17;100.00;97964.56;5075436;28;19924;-82
2022/05/11 10:51:45;;;;;;;;;;;;;;;14.13;100.00;97950.69;5093082;28;19924;-82
2022/05/11 10:54:28;;;;;;;;;;;;;;;14.05;100.00;97946.66;5075536;28;19924;-82
2022/05/11 10:57:08;;;;;;;;;;;;;;;14.14;100.00;97959.88;5058565;28;19924;-82
2022/05/11 10:59:45;;;;;;;;;;;;;;;14.01;100.00;97959.31;5074875;28;19924;-82
2022/05/11 11:02:30;;;;;;;;;;;;;;;14.02;100.00;97958.06;5092577;28;19924;-82
2022/05/11 11:05:16;;;;;;;;;;;;;;;14.29;100.00;97955.19;5074857;28;19924;-82
2022/05/11 11:07:54;;;;;;;;;;;;;;;14.34;100.00;97958.09;5054468;28;19928;-82
2022/05/11 11:10:37;;;;;;;;;;;;;;;13.87;100.00;97945.94;5071538;28;19925;-82
2022/05/11 11:13:23;;;;;;;;;;;;;;;13.70;100.00;97933.50;5072713;28;19931;-83
2022/05/11 11:15:51;;;;;;;;;;;;;;;14.15;100.00;97953.78;5047352;28;20018;-82
2022/05/11 11:18:25;;;;;;;;;;;;;;;14.21;100.00;97943.47;5071881;28;19962;-82
2022/05/11 11:20:58;;;;;;;;;;;;;;;14.13;100.00;97953.47;5072483;28;20023;-83
2022/05/11 11:23:25;;;;;;;;;;;;;;;13.49;100.00;97931.66;5054827;28;19925;-81
2022/05/11 11:25:57;;;;;;;;;;;;;;;13.43;100.00;97939.94;5070918;28;19928;-82
2022/05/11 11:28:34;;;;;;;;;;;;;;;13.68;100.00;97933.97;5071566;28;19928;-82
2022/05/11 11:31:01;;;;;;;;;;;;;;;13.48;100.00;97930.13;5043326;28;19924;-82
2022/05/11 11:33:32;;;;;;;;;;;;;;;13.76;100.00;97934.41;5092646;28;19924;-81
2022/05/11 11:36:05;;;;;;;;;;;;;;;13.39;100.00;97939.31;5057713;28;19924;-81
2022/05/11 11:38:39;;;;;;;;;;;;;;;13.75;100.00;97928.00;5074786;28;19931;-81
2022/05/11 11:41:09;;;;;;;;;;;;;;;13.58;100.00;97926.81;5074340;28;20022;-81
2022/05/11 11:43:44;;;;;;;;;;;;;;;14.04;100.00;97933.09;5092596;28;19924;-82
2022/05/11 11:46:26;;;;;;;;;;;;;;;14.48;100.00;97945.41;5092359;28;20434;-82
2022/05/11 11:49:11;;;;;;;;;;;;;;;14.11;100.00;97935.56;5061568;28;19935;-81
2022/05/11 11:51:50;;;;;;;;;;;;;;;14.29;100.00;97941.13;5096241;28;20019;-81
2022/05/11 11:54:37;;;;;;;;;;;;;;;14.72;100.00;97937.00;5078187;28;19924;-81
2022/05/11 11:57:25;;;;;;;;;;;;;;;14.52;100.00;97920.72;5077851;28;19930;-82
2022/05/11 11:59:58;;;;;;;;;;;;;;;14.28;100.00;97915.06;5075197;28;20393;-81
2022/05/11 12:02:36;;;;;;;;;;;;;;;14.82;100.00;97919.59;5077705;28;19982;-81
2022/05/11 12:05:37;;;;;;;;;;;;;;;13.98;100.00;97909.72;5095380;28;19924;-81
2022/05/11 12:16:43;;;;;;;;;;;;;;;15.10;100.00;97878.75;5095204;28;19928;-81
2022/05/11 12:19:12;;;;;;;;;;;;;;;15.35;100.00;97878.22;5060317;28;19927;-82
2022/05/11 12:21:41;;;;;;;;;;;;;;;15.22;100.00;97871.31;5060989;28;20446;-80
2022/05/11 12:24:19;;;;;;;;;;;;;;;15.46;100.00;97870.00;5077182;28;19924;-80
2022/05/11 12:26:53;;;;;;;;;;;;;;;15.42;100.00;97857.41;5077290;28;20006;-80
2022/05/11 12:32:07;;;;;;;;;;;;;;;14.97;100.00;97855.72;5076621;28;19947;-80
2022/05/11 12:34:42;;;;;;;;;;;;;;;15.22;100.00;97848.78;5095217;28;20299;-80
2022/05/11 12:37:22;;;;;;;;;;;;;;;15.77;100.00;97861.84;5095161;28;20523;-81
2022/05/11 12:39:57;;;;;;;;;;;;;;;15.71;100.00;97848.91;5060801;28;19973;-80
2022/05/11 12:42:28;;;;;;;;;;;;;;;15.35;100.00;97832.41;5094930;28;19924;-81
2022/05/11 12:44:56;;;;;;;;;;;;;;;15.85;100.00;97843.28;5075197;28;20361;-82
2022/05/11 12:47:24;;;;;;;;;;;;;;;15.18;100.00;97834.13;5076970;28;20153;-81
2022/05/11 12:49:51;;;;;;;;;;;;;;;15.22;100.00;97832.69;5055262;28;19924;-80
2022/05/11 12:52:20;;;;;;;;;;;;;;;15.45;100.00;97820.59;5094371;28;19924;-81
2022/05/11 12:54:55;;;;;;;;;;;;;;;15.48;100.00;97832.94;5060480;28;19963;-81
2022/05/11 12:57:23;;;;;;;;;;;;;;;15.53;100.00;97833.03;5076920;28;19924;-81
2022/05/11 12:59:52;;;;;;;;;;;;;;;15.37;100.00;97833.47;5094824;28;19930;-80
2022/05/11 13:02:26;;;;;;;;;;;;;;;15.22;100.00;97852.38;5072452;28;19950;-81
2022/05/11 13:04:55;;;;;;;;;;;;;;;15.24;100.00;97849.06;5094974;28;19924;-81
2022/05/11 13:07:24;;;;;;;;;;;;;;;15.32;100.00;97853.84;5094612;28;19924;-81
2022/05/11 13:09:56;;;;;;;;;;;;;;;14.78;100.00;97862.78;5077251;28;19924;-81
2022/05/11 13:12:23;;;;;;;;;;;;;;;14.60;100.00;97867.75;5076365;28;20022;-81
2022/05/11 13:14:54;;;;;;;;;;;;;;;14.83;100.00;97873.34;5076505;28;20295;-81
2022/05/11 13:17:25;;;;;;;;;;;;;;;14.68;100.00;97869.69;5076756;28;20104;-81
2022/05/11 13:19:57;;;;;;;;;;;;;;;14.83;100.00;97870.53;5094640;28;19932;-81
2022/05/11 13:22:25;;;;;;;;;;;;;;;15.07;100.00;97868.44;5094375;28;19943;-81
2022/05/11 13:24:54;;;;;;;;;;;;;;;14.97;100.00;97872.59;5076713;28;20346;-81
2022/05/11 13:27:34;;;;;;;;;;;;;;;15.07;100.00;97876.88;5076301;28;20359;-81
2022/05/11 13:30:05;;;;;;;;;;;;;;;14.99;100.00;97883.38;5110155;28;20280;-81
2022/05/11 13:32:37;;;;;;;;;;;;;;;15.00;100.00;97896.97;5108306;28;20039;-81
2022/05/11 13:35:28;;;;;;;;;;;;;;;15.18;100.00;97890.41;5076501;28;19950;-81
2022/05/11 13:38:10;;;;;;;;;;;;;;;14.83;100.00;97887.41;5075965;28;19924;-81
2022/05/11 13:40:41;;;;;;;;;;;;;;;15.24;100.00;97894.88;5076188;28;19924;-81